Time;durP1;ratioP1;P1;durP2;ratioP2;P2;SDS_P1;SDS_P2;PMS_P1;PMS_P2;Temp;Humidity;BMP_temperature;BMP_pressure;BME280_temperature;BME280_humidity;BME280_pressure;Samples;Min_cycle;Max_cycle;Signal;HPM_P1;HPM_P2
2021/04/24 00:02:03;;;;;;;3.40;1.35;;;18.00;56.00;;;;;;10498127;28;20037;-57
2021/04/24 00:07:08;;;;;;;2.85;1.40;;;17.90;55.90;;;;;;10497564;28;20048;-58
2021/04/24 00:12:09;;;;;;;2.22;1.50;;;17.90;55.90;;;;;;10497549;28;20031;-57
2021/04/24 00:17:09;;;;;;;1.95;1.30;;;17.90;55.90;;;;;;10497509;28;20032;-58
2021/04/24 00:22:11;;;;;;;3.00;1.80;;;17.90;55.90;;;;;;10497477;28;20354;-57
2021/04/24 00:27:12;;;;;;;2.83;1.40;;;17.90;55.90;;;;;;10497324;28;20546;-62
2021/04/24 00:32:12;;;;;;;3.58;1.50;;;17.90;55.90;;;;;;10497117;28;20103;-62
2021/04/24 00:37:13;;;;;;;3.90;1.20;;;17.90;55.80;;;;;;10497190;28;20036;-62
2021/04/24 00:42:14;;;;;;;3.47;1.60;;;17.90;55.80;;;;;;10496828;28;20119;-63
2021/04/24 00:47:18;;;;;;;1.88;1.30;;;17.90;55.90;;;;;;10505449;28;20047;-62
2021/04/24 00:52:19;;;;;;;2.63;1.40;;;17.90;55.90;;;;;;10492850;28;20104;-62
2021/04/24 00:57:21;;;;;;;2.30;1.23;;;17.90;55.90;;;;;;10510534;28;20024;-62
2021/04/24 01:02:22;;;;;;;2.08;1.23;;;17.90;55.90;;;;;;10492465;28;20017;-62
2021/04/24 01:07:24;;;;;;;2.67;1.50;;;17.80;55.80;;;;;;10510261;28;20028;-62
2021/04/24 01:12:24;;;;;;;2.63;1.50;;;17.80;55.80;;;;;;10510076;28;20431;-62
2021/04/24 01:17:25;;;;;;;3.03;1.40;;;17.80;55.50;;;;;;10492408;28;20032;-62
2021/04/24 01:22:26;;;;;;;2.63;1.45;;;17.80;55.50;;;;;;10492278;28;20082;-62
2021/04/24 01:27:27;;;;;;;2.80;1.50;;;17.80;55.40;;;;;;10492018;28;20059;-62
2021/04/24 01:32:28;;;;;;;2.40;1.40;;;17.80;55.50;;;;;;10509842;28;20141;-61
2021/04/24 01:37:29;;;;;;;2.22;1.40;;;17.80;55.50;;;;;;10492031;28;20036;-62
2021/04/24 01:42:29;;;;;;;2.15;1.50;;;17.80;55.60;;;;;;10509960;28;20045;-63
2021/04/24 01:47:30;;;;;;;2.95;1.83;;;17.80;55.40;;;;;;10491997;28;20107;-62
2021/04/24 01:52:34;;;;;;;2.75;1.60;;;17.80;55.30;;;;;;10509670;28;20043;-58
2021/04/24 01:57:34;;;;;;;3.78;1.75;;;17.80;55.40;;;;;;10505500;28;20024;-58
2021/04/24 02:02:36;;;;;;;2.05;1.30;;;17.80;55.30;;;;;;10502591;28;20051;-58
2021/04/24 02:07:37;;;;;;;2.13;1.40;;;17.80;55.60;;;;;;10502557;28;20029;-58
2021/04/24 02:12:39;;;;;;;2.42;1.33;;;17.80;55.20;;;;;;10502401;28;20026;-58
2021/04/24 02:17:40;;;;;;;2.42;1.40;;;17.80;55.10;;;;;;10470999;28;20036;-57
2021/04/24 02:22:42;;;;;;;4.28;1.95;;;17.80;55.10;;;;;;10483733;28;20020;-58
2021/04/24 02:27:42;;;;;;;2.17;1.65;;;17.70;55.00;;;;;;10501572;28;20473;-58
2021/04/24 02:32:45;;;;;;;4.05;1.88;;;17.80;55.10;;;;;;10501786;28;20024;-57
2021/04/24 02:37:46;;;;;;;4.28;2.33;;;17.80;55.00;;;;;;10483696;28;20112;-57
2021/04/24 02:42:47;;;;;;;2.10;1.42;;;17.80;55.00;;;;;;10501051;28;20097;-58
2021/04/24 02:47:48;;;;;;;3.22;1.73;;;17.80;55.10;;;;;;10500963;28;20116;-58
2021/04/24 02:52:49;;;;;;;3.33;1.88;;;17.70;55.00;;;;;;10482970;28;20366;-58
2021/04/24 02:57:50;;;;;;;2.90;1.85;;;17.70;54.90;;;;;;10482764;28;20024;-58
2021/04/24 03:03:01;;;;;;;2.85;1.73;;;17.80;54.80;;;;;;10499977;28;20451;-58
2021/04/24 03:08:04;;;;;;;2.67;1.52;;;17.80;54.80;;;;;;10500219;28;20038;-57
2021/04/24 03:13:07;;;;;;;2.17;1.45;;;17.80;54.80;;;;;;10470978;28;20485;-57
2021/04/24 03:18:09;;;;;;;3.17;1.63;;;17.70;54.60;;;;;;10499727;28;20115;-57
2021/04/24 03:23:10;;;;;;;2.70;1.58;;;17.80;54.60;;;;;;10473357;28;20067;-58
2021/04/24 03:28:11;;;;;;;2.13;1.70;;;17.80;54.70;;;;;;10512900;28;20111;-57
2021/04/24 03:33:11;;;;;;;2.30;1.58;;;17.80;54.60;;;;;;10499078;28;20024;-59
2021/04/24 03:38:12;;;;;;;3.03;1.80;;;17.70;54.60;;;;;;10476399;28;20032;-57
2021/04/24 03:43:13;;;;;;;2.40;1.60;;;17.70;54.60;;;;;;10498212;28;20511;-57
2021/04/24 03:48:13;;;;;;;2.72;1.73;;;17.70;54.70;;;;;;10480622;28;20082;-57
2021/04/24 03:53:14;;;;;;;3.53;1.85;;;17.70;54.60;;;;;;10498550;28;20028;-58
2021/04/24 03:58:15;;;;;;;3.38;1.88;;;17.70;55.10;;;;;;10498219;28;20025;-58
2021/04/24 04:03:16;;;;;;;2.55;1.52;;;17.70;54.50;;;;;;10496834;28;20029;-58
2021/04/24 04:08:16;;;;;;;3.03;2.00;;;17.70;54.50;;;;;;10497806;28;20056;-57
2021/04/24 04:13:17;;;;;;;3.20;2.08;;;17.70;54.50;;;;;;10495958;28;20055;-58
2021/04/24 04:18:20;;;;;;;2.67;1.58;;;17.70;54.50;;;;;;10495622;28;20032;-58
2021/04/24 04:23:25;;;;;;;2.72;1.80;;;17.60;54.30;;;;;;10485373;28;20037;-58
2021/04/24 04:28:26;;;;;;;2.83;1.70;;;17.70;54.30;;;;;;10489388;28;20376;-57
2021/04/24 04:33:27;;;;;;;3.17;1.95;;;17.70;54.40;;;;;;10472289;28;20043;-58
2021/04/24 04:38:29;;;;;;;2.72;1.92;;;17.70;54.30;;;;;;10490482;28;20419;-58
2021/04/24 04:43:30;;;;;;;2.45;1.58;;;17.70;54.40;;;;;;10490150;28;20682;-57
2021/04/24 04:48:30;;;;;;;2.63;1.65;;;17.60;54.40;;;;;;10472133;28;20031;-58
2021/04/24 04:53:31;;;;;;;3.03;1.88;;;17.60;54.40;;;;;;10490420;28;20032;-57
2021/04/24 04:58:32;;;;;;;2.30;1.45;;;17.70;54.40;;;;;;10495298;28;20119;-57
2021/04/24 05:03:32;;;;;;;2.15;1.40;;;17.70;54.50;;;;;;10478655;28;20103;-58
2021/04/24 05:08:36;;;;;;;2.05;1.40;;;17.70;54.40;;;;;;10496614;28;20024;-57
2021/04/24 05:13:36;;;;;;;2.55;1.58;;;17.70;54.50;;;;;;10496077;28;20031;-58
2021/04/24 05:18:37;;;;;;;2.38;1.63;;;17.60;54.50;;;;;;10478359;28;20389;-55
2021/04/24 05:23:38;;;;;;;7.40;3.03;;;17.60;54.50;;;;;;10496052;28;20040;-57
2021/04/24 05:28:39;;;;;;;5.43;2.80;;;17.70;54.90;;;;;;10496005;28;20125;-58
2021/04/24 05:33:39;;;;;;;7.35;2.50;;;17.70;55.80;;;;;;10500732;28;20540;-55
2021/04/24 05:38:40;;;;;;;4.47;2.40;;;17.70;56.50;;;;;;10503230;28;20486;-57
2021/04/24 05:43:41;;;;;;;7.03;2.65;;;17.70;56.80;;;;;;10503016;28;20120;-56
2021/04/24 05:48:41;;;;;;;9.68;2.78;;;17.70;56.90;;;;;;10502890;28;20099;-58
2021/04/24 05:53:48;;;;;;;6.55;2.63;;;17.80;56.80;;;;;;10484568;28;20119;-57
2021/04/24 05:58:50;;;;;;;4.18;2.40;;;17.80;56.20;;;;;;10502759;28;20099;-57
2021/04/24 06:03:54;;;;;;;7.90;2.67;;;17.70;56.10;;;;;;10501672;28;20033;-56
2021/04/24 06:08:55;;;;;;;9.93;2.67;;;17.70;55.80;;;;;;10501680;28;20029;-57
2021/04/24 06:13:56;;;;;;;5.45;2.60;;;17.60;55.70;;;;;;10475119;28;20021;-57
2021/04/24 06:18:57;;;;;;;8.73;2.60;;;17.60;55.90;;;;;;10500901;28;20050;-56
2021/04/24 06:23:57;;;;;;;8.48;3.10;;;17.60;56.40;;;;;;10500809;28;20503;-57
2021/04/24 06:28:58;;;;;;;8.32;3.53;;;17.60;56.50;;;;;;10501186;28;20024;-56
2021/04/24 06:33:59;;;;;;;7.30;3.05;;;17.50;56.20;;;;;;10483004;28;20028;-56
2021/04/24 06:39:04;;;;;;;12.15;3.28;;;17.60;56.60;;;;;;10500165;28;20103;-56
2021/04/24 06:44:05;;;;;;;15.48;3.20;;;17.50;56.90;;;;;;10500281;28;20085;-56
2021/04/24 06:49:06;;;;;;;10.23;2.78;;;17.50;57.30;;;;;;10500289;28;20029;-57
2021/04/24 06:54:07;;;;;;;9.45;3.60;;;17.50;57.20;;;;;;10500072;28;20025;-56
2021/04/24 06:59:08;;;;;;;9.13;3.20;;;17.50;57.20;;;;;;10499440;28;20604;-57
2021/04/24 07:04:09;;;;;;;9.02;2.67;;;17.50;57.20;;;;;;10496650;28;20032;-57
2021/04/24 07:09:10;;;;;;;13.35;3.13;;;17.50;57.20;;;;;;10482043;28;20104;-57
2021/04/24 07:14:11;;;;;;;41.92;4.70;;;17.50;57.60;;;;;;10499976;28;20028;-56
2021/04/24 07:19:12;;;;;;;15.48;3.72;;;17.50;58.00;;;;;;10499957;28;20501;-56
2021/04/24 07:24:13;;;;;;;17.98;3.00;;;17.50;58.50;;;;;;10481717;28;20458;-55
2021/04/24 07:29:14;;;;;;;18.10;3.80;;;17.50;58.60;;;;;;10473222;28;20107;-56
2021/04/24 07:34:15;;;;;;;16.05;4.00;;;17.50;58.80;;;;;;10498516;28;20021;-56
2021/04/24 07:39:15;;;;;;;27.65;5.10;;;17.50;59.70;;;;;;10497294;28;20365;-55
2021/04/24 07:44:17;;;;;;;24.80;4.43;;;17.50;59.70;;;;;;10480158;28;20603;-57
2021/04/24 07:49:18;;;;;;;15.13;3.95;;;17.60;59.60;;;;;;10497586;28;20032;-57
2021/04/24 07:54:19;;;;;;;17.17;4.05;;;17.60;59.40;;;;;;10497597;28;20078;-57
2021/04/24 07:59:19;;;;;;;16.35;4.85;;;17.60;59.00;;;;;;10479927;28;20540;-46
2021/04/24 08:04:20;;;;;;;15.40;3.80;;;17.50;58.90;;;;;;10495472;28;20106;-48
2021/04/24 08:09:21;;;;;;;11.93;3.80;;;17.50;58.60;;;;;;10488436;28;20111;-49
2021/04/24 08:14:22;;;;;;;12.30;3.58;;;17.50;58.60;;;;;;10489113;28;20039;-52
2021/04/24 08:19:24;;;;;;;10.93;2.53;;;17.50;58.50;;;;;;10492354;28;20023;-52
2021/04/24 08:24:25;;;;;;;16.00;3.40;;;17.50;58.30;;;;;;10495837;28;20020;-50
2021/04/24 08:29:26;;;;;;;12.75;3.45;;;17.60;58.30;;;;;;10496845;28;20032;-51
2021/04/24 08:34:27;;;;;;;13.77;3.28;;;17.60;58.10;;;;;;10497086;28;20037;-50
2021/04/24 08:39:28;;;;;;;11.55;3.05;;;17.50;58.10;;;;;;10497277;28;20035;-50
2021/04/24 08:44:29;;;;;;;10.68;4.10;;;17.50;57.90;;;;;;10496843;28;20047;-50
2021/04/24 08:49:30;;;;;;;15.00;3.33;;;17.50;57.70;;;;;;10510245;28;20063;-50
2021/04/24 08:54:31;;;;;;;16.90;3.85;;;17.50;57.70;;;;;;10496496;28;20418;-46
2021/04/24 08:59:32;;;;;;;12.00;2.88;;;17.50;57.70;;;;;;10495194;28;20044;-50
2021/04/24 09:04:34;;;;;;;9.13;2.72;;;17.50;57.60;;;;;;10493434;28;20035;-50
2021/04/24 09:09:35;;;;;;;13.18;3.60;;;17.50;57.60;;;;;;10483847;28;20032;-48
2021/04/24 09:14:35;;;;;;;8.35;2.72;;;17.50;57.50;;;;;;10503012;28;20033;-50
2021/04/24 09:19:37;;;;;;;6.10;2.42;;;17.50;57.50;;;;;;10504472;28;20029;-47
2021/04/24 09:24:39;;;;;;;9.82;2.42;;;17.50;57.50;;;;;;10485930;28;20489;-51
2021/04/24 09:29:40;;;;;;;10.88;4.55;;;17.50;57.50;;;;;;10503882;28;20059;-51
2021/04/24 09:34:41;;;;;;;7.45;2.90;;;17.50;57.40;;;;;;10503652;28;20543;-49
2021/04/24 09:39:55;;;;;;;4.22;2.28;;;17.50;57.40;;;;;;10503553;28;20115;-45
2021/04/24 09:44:56;;;;;;;6.68;1.92;;;17.50;57.40;;;;;;10503229;28;20486;-49
2021/04/24 09:49:57;;;;;;;9.80;2.75;;;17.50;57.40;;;;;;10485153;28;20028;-49
2021/04/24 09:54:59;;;;;;;6.93;3.50;;;17.50;57.40;;;;;;10502964;28;20107;-46
2021/04/24 10:00:12;;;;;;;5.78;2.10;;;17.50;57.40;;;;;;10502669;28;20043;-45
2021/04/24 10:05:19;;;;;;;5.43;2.50;;;17.60;57.40;;;;;;10502500;28;20033;-46
2021/04/24 10:10:31;;;;;;;6.65;2.10;;;17.60;57.40;;;;;;10484804;28;20037;-44
2021/04/24 10:15:39;;;;;;;3.80;2.13;;;17.60;57.30;;;;;;10502321;28;20138;-44
2021/04/24 10:20:43;;;;;;;5.75;2.22;;;17.50;57.20;;;;;;10500764;28;20456;-46
2021/04/24 10:25:45;;;;;;;5.47;2.22;;;17.60;57.20;;;;;;10501701;28;20066;-48
2021/04/24 10:30:46;;;;;;;5.85;2.30;;;17.60;57.20;;;;;;10470823;28;20036;-47
2021/04/24 10:35:47;;;;;;;4.57;1.88;;;17.60;57.10;;;;;;10470105;28;20436;-46
2021/04/24 10:40:48;;;;;;;6.05;2.40;;;17.60;57.10;;;;;;10482887;28;20025;-48
2021/04/24 10:45:49;;;;;;;8.20;2.90;;;17.60;57.00;;;;;;10500110;28;20049;-48
2021/04/24 10:50:50;;;;;;;7.75;1.80;;;17.70;56.70;;;;;;10500716;28;20025;-46
2021/04/24 10:55:54;;;;;;;8.00;2.45;;;17.60;56.50;;;;;;10500544;28;20085;-45
2021/04/24 11:01:06;;;;;;;10.60;2.40;;;17.70;56.40;;;;;;10500538;28;20029;-45
2021/04/24 11:06:15;;;;;;;8.23;2.63;;;17.70;55.80;;;;;;10499954;28;20111;-46
2021/04/24 11:11:21;;;;;;;7.27;2.03;;;17.60;55.70;;;;;;10499739;28;20036;-46
2021/04/24 11:16:31;;;;;;;9.63;2.42;;;17.60;55.70;;;;;;10498528;28;20035;-44
2021/04/24 11:21:32;;;;;;;;;;;17.60;55.80;;;;;;10499810;28;20027;-46
2021/04/24 11:26:35;;;;;;;24.08;4.38;;;17.60;55.90;;;;;;10498420;28;20284;-49
2021/04/24 11:31:58;;;;;;;17.00;3.05;;;17.60;56.10;;;;;;10497946;28;20035;-46
2021/04/24 11:37:14;;;;;;;20.42;4.25;;;17.70;56.40;;;;;;10497852;28;20035;-48
2021/04/24 11:42:30;;;;;;;23.90;4.88;;;17.70;56.40;;;;;;10478772;28;20080;-49
2021/04/24 11:47:39;;;;;;;34.28;4.40;;;17.70;56.50;;;;;;10476186;28;20375;-50
2021/04/24 11:52:57;;;;;;;27.75;5.35;;;17.70;56.40;;;;;;10498260;28;20045;-46
2021/04/24 11:58:10;;;;;;;34.80;6.68;;;17.70;56.20;;;;;;10480367;28;20033;-45
2021/04/24 12:03:11;;;;;;;28.25;5.10;;;17.80;56.00;;;;;;10497880;28;20403;-47
2021/04/24 12:08:22;;;;;;;19.08;4.70;;;17.70;55.30;;;;;;10497399;28;20025;-50
2021/04/24 12:13:22;;;;;;;14.70;3.83;;;17.70;55.10;;;;;;10497283;28;20376;-50
2021/04/24 12:18:32;;;;;;;16.83;4.15;;;17.70;55.00;;;;;;10497484;28;20039;-51
2021/04/24 12:23:33;;;;;;;13.93;3.33;;;17.70;55.00;;;;;;10497496;28;20089;-47
2021/04/24 12:28:34;;;;;;;12.55;3.53;;;17.70;55.10;;;;;;10497404;28;20103;-51
2021/04/24 12:33:35;;;;;;;12.45;3.67;;;17.70;55.20;;;;;;10479377;28;20482;-50
2021/04/24 12:38:36;;;;;;;17.27;4.88;;;17.60;55.00;;;;;;10468173;28;20028;-46
2021/04/24 12:43:42;;;;;;;10.48;2.45;;;17.60;54.90;;;;;;10509466;28;20064;-50
2021/04/24 12:48:46;;;;;;;12.52;3.13;;;17.60;55.00;;;;;;10496924;28;20067;-51
2021/04/24 12:53:51;;;;;;;10.30;3.03;;;17.60;55.00;;;;;;10471223;28;20035;-49
2021/04/24 12:58:57;;;;;;;10.90;2.70;;;17.60;55.00;;;;;;10496623;28;20132;-52
2021/04/24 13:03:59;;;;;;;9.00;2.92;;;17.50;54.70;;;;;;10496559;28;20025;-50
2021/04/24 13:09:19;;;;;;;9.98;2.65;;;17.60;54.60;;;;;;10496799;28;20111;-51
2021/04/24 13:14:22;;;;;;;;;;;17.50;54.60;;;;;;10495894;28;20017;-48
2021/04/24 13:19:24;;;;;;;8.02;3.00;;;17.50;54.50;;;;;;10494830;28;19922;-52
2021/04/24 13:24:26;;;;;;;11.55;3.97;;;17.50;54.40;;;;;;10492199;28;20024;-49
2021/04/24 13:29:36;;;;;;;8.77;2.42;;;17.60;54.40;;;;;;10496027;28;20028;-52
2021/04/24 13:34:40;;;;;;;15.73;3.55;;;17.50;54.30;;;;;;10478183;28;20415;-50
2021/04/24 13:40:06;;;;;;;8.98;2.38;;;17.50;54.20;;;;;;10502247;28;20388;-50
2021/04/24 13:45:16;;;;;;;6.88;2.33;;;17.50;54.00;;;;;;10481287;28;20049;-49
2021/04/24 13:50:20;;;;;;;7.85;2.38;;;17.50;54.10;;;;;;10495662;28;20048;-49
2021/04/24 13:55:21;;;;;;;4.22;2.25;;;17.50;53.80;;;;;;10500744;28;20028;-47
2021/04/24 14:00:22;;;;;;;5.78;2.22;;;17.50;53.90;;;;;;10502504;28;20028;-50
2021/04/24 14:05:22;;;;;;;5.57;2.70;;;17.50;54.00;;;;;;10502946;28;20043;-52
2021/04/24 14:10:24;;;;;;;7.78;2.25;;;17.50;54.10;;;;;;10502104;28;20103;-48
2021/04/24 14:15:25;;;;;;;6.10;1.95;;;17.50;53.80;;;;;;10501721;28;20028;-52
2021/04/24 14:20:26;;;;;;;10.63;2.67;;;17.50;53.60;;;;;;10501407;28;20044;-49
2021/04/24 14:25:27;;;;;;;12.25;3.47;;;17.50;53.60;;;;;;10483662;28;20033;-50
2021/04/24 14:30:28;;;;;;;11.32;2.50;;;17.50;53.50;;;;;;10502153;28;20032;-51
2021/04/24 14:35:28;;;;;;;8.88;2.88;;;17.50;53.60;;;;;;10501741;28;20025;-51
2021/04/24 14:40:29;;;;;;;11.32;3.08;;;17.50;53.50;;;;;;10501179;28;20032;-54
2021/04/24 14:45:30;;;;;;;10.18;3.50;;;17.50;53.20;;;;;;10501150;28;20056;-54
2021/04/24 14:50:32;;;;;;;7.90;2.72;;;17.50;53.30;;;;;;10500821;28;20350;-52
2021/04/24 14:55:32;;;;;;;13.10;3.17;;;17.50;53.00;;;;;;10501330;28;20032;-53
2021/04/24 15:00:33;;;;;;;10.45;2.80;;;17.50;52.70;;;;;;10500775;28;20062;-50
2021/04/24 15:05:34;;;;;;;16.92;2.70;;;17.60;52.60;;;;;;10499671;28;20033;-52
2021/04/24 15:10:36;;;;;;;12.20;3.05;;;17.60;52.70;;;;;;10499225;28;20028;-50
2021/04/24 15:15:38;;;;;;;17.60;3.70;;;17.60;52.80;;;;;;10499176;28;20102;-51
2021/04/24 15:20:39;;;;;;;16.40;3.63;;;17.60;52.90;;;;;;10499396;28;20465;-53
2021/04/24 15:25:40;;;;;;;22.23;4.05;;;17.70;53.20;;;;;;10497082;28;20029;-54
2021/04/24 15:30:41;;;;;;;17.98;4.50;;;17.70;53.30;;;;;;10497192;28;20056;-51
2021/04/24 15:35:45;;;;;;;37.40;5.78;;;17.70;53.80;;;;;;10494419;28;20025;-51
2021/04/24 15:40:46;;;;;;;25.52;3.78;;;17.70;53.70;;;;;;10480395;28;20477;-50
2021/04/24 15:45:47;;;;;;;31.45;4.90;;;17.70;53.90;;;;;;10492775;28;20045;-50
2021/04/24 15:50:48;;;;;;;38.15;5.18;;;17.80;53.90;;;;;;10498130;28;20094;-51
2021/04/24 15:55:51;;;;;;;29.17;5.40;;;17.70;53.10;;;;;;10497955;28;20123;-48
2021/04/24 16:00:52;;;;;;;41.80;12.82;;;17.70;52.90;;;;;;10498308;28;20508;-49
2021/04/24 16:05:53;;;;;;;33.00;10.35;;;17.80;55.60;;;;;;10497825;28;20108;-52
2021/04/24 16:10:53;;;;;;;31.95;10.15;;;17.80;56.20;;;;;;10473661;28;20112;-56
2021/04/24 16:15:55;;;;;;;26.52;7.18;;;17.90;57.90;;;;;;10495444;28;20123;-50
2021/04/24 16:20:56;;;;;;;19.02;4.03;;;17.90;56.50;;;;;;10497396;28;20485;-55
2021/04/24 16:25:57;;;;;;;18.15;4.30;;;18.00;54.10;;;;;;10498588;28;20040;-55
2021/04/24 16:30:57;;;;;;;21.98;3.83;;;17.90;54.80;;;;;;10509816;28;20056;-56
2021/04/24 16:35:58;;;;;;;21.38;4.53;;;17.90;55.60;;;;;;10497152;28;20103;-56
2021/04/24 16:40:59;;;;;;;21.80;4.38;;;17.90;56.50;;;;;;10497064;28;20070;-52
2021/04/24 16:46:00;;;;;;;7.95;2.90;;;17.90;55.90;;;;;;10496807;28;20054;-53
2021/04/24 16:51:01;;;;;;;9.45;2.40;;;17.90;55.60;;;;;;10496882;28;20032;-53
2021/04/24 16:56:02;;;;;;;13.65;3.67;;;18.00;56.10;;;;;;10496800;28;20507;-52
2021/04/24 17:01:03;;;;;;;11.85;2.90;;;17.90;55.90;;;;;;10478646;28;20025;-55
2021/04/24 17:06:04;;;;;;;9.55;3.72;;;17.90;55.20;;;;;;10496292;28;20081;-54
2021/04/24 17:11:05;;;;;;;12.48;2.85;;;17.80;54.70;;;;;;10496439;28;20104;-53
2021/04/24 17:16:06;;;;;;;12.52;3.13;;;17.80;55.70;;;;;;10496245;28;20029;-54
2021/04/24 17:21:07;;;;;;;11.45;2.75;;;17.80;55.80;;;;;;10496405;28;20037;-52
2021/04/24 17:26:08;;;;;;;10.65;2.25;;;17.80;56.50;;;;;;10466503;28;20032;-53
2021/04/24 17:31:08;;;;;;;7.72;2.42;;;17.80;57.00;;;;;;10503393;28;20144;-53
2021/04/24 17:36:09;;;;;;;6.68;2.45;;;17.80;57.30;;;;;;10504047;28;20032;-53
2021/04/24 17:41:10;;;;;;;8.05;1.58;;;17.80;56.70;;;;;;10503127;28;20028;-54
2021/04/24 17:46:10;;;;;;;11.35;2.65;;;17.80;56.20;;;;;;10503128;28;20120;-55
2021/04/24 17:51:11;;;;;;;10.00;2.30;;;17.80;55.40;;;;;;10502482;28;20032;-49
2021/04/24 17:56:12;;;;;;;6.03;1.63;;;17.90;55.20;;;;;;10502163;28;20107;-54
2021/04/24 18:01:13;;;;;;;5.75;1.77;;;17.80;55.30;;;;;;10473453;28;20108;-55
2021/04/24 18:06:14;;;;;;;7.95;2.03;;;17.80;55.40;;;;;;10501003;28;20028;-54
2021/04/24 18:11:14;;;;;;;10.30;1.88;;;17.80;55.50;;;;;;10501311;28;20069;-52
2021/04/24 18:16:15;;;;;;;9.95;2.28;;;17.80;55.50;;;;;;10500739;28;20396;-55
2021/04/24 18:21:16;;;;;;;7.30;2.22;;;17.80;55.60;;;;;;10501053;28;20033;-55
2021/04/24 18:26:17;;;;;;;9.07;2.25;;;17.80;55.60;;;;;;10500958;28;20100;-56
2021/04/24 18:31:18;;;;;;;6.78;1.73;;;17.70;55.80;;;;;;10500786;28;20123;-55
2021/04/24 18:36:21;;;;;;;7.80;1.73;;;17.70;56.00;;;;;;10468094;28;20066;-56
2021/04/24 18:41:24;;;;;;;10.85;1.90;;;17.70;56.10;;;;;;10488150;28;20040;-55
2021/04/24 18:46:26;;;;;;;8.95;3.17;;;17.70;56.30;;;;;;10494637;28;20436;-55
2021/04/24 18:51:27;;;;;;;8.65;2.30;;;17.70;56.40;;;;;;10495601;28;20158;-55
2021/04/24 18:56:27;;;;;;;5.75;1.88;;;17.70;56.40;;;;;;10489482;28;20465;-56
2021/04/24 19:01:28;;;;;;;8.95;2.28;;;17.70;56.50;;;;;;10461735;28;20033;-56
2021/04/24 19:06:29;;;;;;;6.55;2.17;;;17.70;56.40;;;;;;10476203;28;20388;-56
2021/04/24 19:11:30;;;;;;;9.57;2.72;;;17.70;56.50;;;;;;10472983;28;20048;-56
2021/04/24 19:16:31;;;;;;;5.70;1.90;;;17.70;56.50;;;;;;10446684;28;20024;-55
2021/04/24 19:21:32;;;;;;;12.38;2.13;;;17.70;56.50;;;;;;10485385;28;20112;-55
2021/04/24 19:26:33;;;;;;;7.10;1.63;;;17.70;56.50;;;;;;10489128;28;20013;-55
2021/04/24 19:31:34;;;;;;;5.25;2.33;;;17.70;56.60;;;;;;10479589;28;20025;-56
2021/04/24 19:36:35;;;;;;;9.52;2.15;;;17.70;56.60;;;;;;10484313;28;20021;-56
2021/04/24 19:41:36;;;;;;;6.90;2.10;;;17.70;56.90;;;;;;10497086;28;20024;-55
2021/04/24 19:46:37;;;;;;;7.65;2.08;;;17.70;56.90;;;;;;10496328;28;20040;-55
2021/04/24 19:51:37;;;;;;;16.63;2.33;;;17.70;56.90;;;;;;10498325;28;20115;-55
2021/04/24 19:56:40;;;;;;;6.20;1.75;;;17.70;56.50;;;;;;10498540;28;20024;-56
2021/04/24 20:01:41;;;;;;;10.88;2.28;;;17.70;56.40;;;;;;10498279;28;20146;-56
2021/04/24 20:06:46;;;;;;;6.05;1.55;;;17.70;56.30;;;;;;10498413;28;20214;-55
2021/04/24 20:11:47;;;;;;;6.95;2.13;;;17.70;56.30;;;;;;10497891;28;20107;-56
2021/04/24 20:16:49;;;;;;;7.53;2.35;;;17.60;56.20;;;;;;10479884;28;20040;-55
2021/04/24 20:21:50;;;;;;;6.50;2.13;;;17.60;56.10;;;;;;10497617;28;20032;-56
2021/04/24 20:26:51;;;;;;;5.18;1.95;;;17.60;56.00;;;;;;10497524;28;20020;-56
2021/04/24 20:31:52;;;;;;;7.32;2.83;;;17.60;55.90;;;;;;10497502;28;20079;-56
2021/04/24 20:36:52;;;;;;;5.78;1.70;;;17.60;55.80;;;;;;10497258;28;20035;-55
2021/04/24 20:41:53;;;;;;;6.50;1.40;;;17.60;55.70;;;;;;10497140;28;20108;-56
2021/04/24 20:46:54;;;;;;;6.47;1.83;;;17.60;55.70;;;;;;10497300;28;20048;-56
2021/04/24 20:51:55;;;;;;;5.53;1.58;;;17.60;55.70;;;;;;10496882;28;20037;-56
2021/04/24 20:56:56;;;;;;;4.10;1.45;;;17.60;55.50;;;;;;10497000;28;20025;-56
2021/04/24 21:01:57;;;;;;;6.82;2.05;;;17.50;55.30;;;;;;10497643;28;20035;-55
2021/04/24 21:06:58;;;;;;;5.40;1.90;;;17.50;55.70;;;;;;10518951;28;20615;-56
2021/04/24 21:11:58;;;;;;;7.10;1.63;;;17.60;55.70;;;;;;10487205;28;20028;-55
2021/04/24 21:16:59;;;;;;;5.55;1.80;;;17.60;55.70;;;;;;10487063;28;20128;-56
2021/04/24 21:22:00;;;;;;;3.05;1.67;;;17.60;55.70;;;;;;10486598;28;20111;-56
2021/04/24 21:27:03;;;;;;;4.22;1.42;;;17.60;55.70;;;;;;10504547;28;20024;-55
2021/04/24 21:32:04;;;;;;;3.60;1.38;;;17.60;55.40;;;;;;10504202;28;20070;-55
2021/04/24 21:37:05;;;;;;;3.55;1.38;;;17.50;55.40;;;;;;10517818;28;20495;-55
2021/04/24 21:42:06;;;;;;;3.58;1.20;;;17.60;55.20;;;;;;10474724;28;20041;-55
2021/04/24 21:47:06;;;;;;;4.78;1.80;;;17.60;55.10;;;;;;10475749;28;20037;-55
2021/04/24 21:52:08;;;;;;;2.90;1.35;;;17.60;55.10;;;;;;10503501;28;20108;-56
2021/04/24 21:57:09;;;;;;;2.63;1.08;;;17.60;54.90;;;;;;10503278;28;20369;-56
2021/04/24 22:02:10;;;;;;;3.15;1.25;;;17.70;54.80;;;;;;10503074;28;20367;-55
2021/04/24 22:07:11;;;;;;;3.00;1.13;;;17.60;54.80;;;;;;10485200;28;20028;-56
2021/04/24 22:12:11;;;;;;;2.88;1.52;;;17.60;54.80;;;;;;10502909;28;20366;-55
2021/04/24 22:17:12;;;;;;;4.43;1.25;;;17.60;54.70;;;;;;10483278;28;20481;-56
2021/04/24 22:22:13;;;;;;;2.58;1.15;;;17.70;54.70;;;;;;10502398;28;20151;-55
2021/04/24 22:27:14;;;;;;;2.38;0.90;;;17.70;54.60;;;;;;10484196;28;20021;-55
2021/04/24 22:32:14;;;;;;;3.45;1.20;;;17.60;54.60;;;;;;10467661;28;20025;-56
2021/04/24 22:37:15;;;;;;;3.00;1.10;;;17.60;54.50;;;;;;10501912;28;20028;-56
2021/04/24 22:42:16;;;;;;;2.60;1.33;;;17.60;54.50;;;;;;10501363;28;20028;-55
2021/04/24 22:47:16;;;;;;;2.78;1.30;;;17.60;54.50;;;;;;10501413;28;20028;-55
2021/04/24 22:52:17;;;;;;;2.40;1.42;;;17.60;54.30;;;;;;10501424;28;20107;-55
2021/04/24 22:57:18;;;;;;;2.45;1.25;;;17.70;54.40;;;;;;10476883;28;20033;-56
2021/04/24 23:02:18;;;;;;;2.97;1.40;;;17.60;54.40;;;;;;10500668;28;20029;-55
2021/04/24 23:07:19;;;;;;;2.95;1.27;;;17.60;54.40;;;;;;10500761;28;20112;-55
2021/04/24 23:12:20;;;;;;;3.20;1.40;;;17.60;54.50;;;;;;10500548;28;20535;-56
2021/04/24 23:17:21;;;;;;;1.70;0.90;;;17.60;54.50;;;;;;10500435;28;20473;-55
2021/04/24 23:22:21;;;;;;;3.05;1.35;;;17.60;54.50;;;;;;10499540;28;20086;-55
2021/04/24 23:27:22;;;;;;;2.58;1.20;;;17.60;54.50;;;;;;10499437;28;20334;-55
2021/04/24 23:32:23;;;;;;;3.00;1.35;;;17.50;54.40;;;;;;10499349;28;20035;-56
2021/04/24 23:37:24;;;;;;;6.82;1.30;;;17.60;54.30;;;;;;10499115;28;20512;-56
2021/04/24 23:42:24;;;;;;;3.42;1.23;;;17.60;54.30;;;;;;10498865;28;20048;-56
2021/04/24 23:47:25;;;;;;;4.72;1.00;;;17.50;54.20;;;;;;10499007;28;20103;-55
2021/04/24 23:52:26;;;;;;;3.03;1.40;;;17.60;54.10;;;;;;10481003;28;20107;-55
2021/04/24 23:57:27;;;;;;;3.53;1.35;;;17.60;54.10;;;;;;10498444;28;20116;-56
